Time;durP1;ratioP1;P1;durP2;ratioP2;P2;SDS_P1;SDS_P2;PMS_P1;PMS_P2;Temp;Humidity;BMP_temperature;BMP_pressure;BME280_temperature;BME280_humidity;BME280_pressure;Samples;Min_cycle;Max_cycle;Signal;HPM_P1;HPM_P2
2023/03/01 00:02:20;;;;;;;19.20;12.67;;;;;;;0.16;63.09;96814.22;5026227;28;20442;-71
2023/03/01 00:04:46;;;;;;;18.83;12.93;;;;;;;0.23;63.09;96812.53;5026374;28;20414;-70
2023/03/01 00:07:11;;;;;;;18.10;13.43;;;;;;;0.34;63.01;96805.69;5026075;28;20590;-71
2023/03/01 00:09:37;;;;;;;21.50;13.27;;;;;;;0.06;63.50;96807.31;5027009;28;20233;-70
2023/03/01 00:12:03;;;;;;;17.90;13.57;;;;;;;0.17;63.35;96808.22;5030203;28;20191;-70
2023/03/01 00:14:29;;;;;;;17.30;12.57;;;;;;;0.10;63.74;96797.88;5030000;28;20319;-70
2023/03/01 00:16:54;;;;;;;18.33;11.83;;;;;;;0.23;63.96;96798.75;5029494;28;20910;-69
2023/03/01 00:19:21;;;;;;;19.53;12.70;;;;;;;-0.05;64.75;96803.81;5029837;28;20203;-71
2023/03/01 00:21:48;;;;;;;19.83;12.70;;;;;;;-0.08;64.61;96803.81;5029637;28;20203;-71
2023/03/01 00:24:14;;;;;;;19.67;12.33;;;;;;;-0.03;64.92;96804.69;5029767;28;20442;-70
2023/03/01 00:26:39;;;;;;;19.53;12.93;;;;;;;0.16;64.40;96803.91;5028034;28;20534;-70
2023/03/01 00:29:05;;;;;;;23.77;12.33;;;;;;;0.40;63.22;96794.50;5029895;28;20706;-70
2023/03/01 00:31:32;;;;;;;22.33;14.20;;;;;;;0.38;63.31;96802.25;5014384;28;20188;-70
2023/03/01 00:34:05;;;;;;;16.97;12.53;;;;;;;0.48;63.41;96791.97;5010052;28;20176;-70
2023/03/01 00:36:34;;;;;;;19.43;13.53;;;;;;;0.60;62.54;96792.81;5016321;28;20416;-71
2023/03/01 00:39:00;;;;;;;16.40;12.40;;;;;;;0.68;62.29;96785.06;5019206;28;20461;-71
2023/03/01 00:41:28;;;;;;;20.43;13.50;;;;;;;0.45;63.03;96787.66;5016508;28;20431;-71
2023/03/01 00:43:55;;;;;;;21.40;12.40;;;;;;;0.48;63.18;96785.06;5015715;28;20410;-71
2023/03/01 00:46:23;;;;;;;19.00;13.17;;;;;;;0.54;63.61;96774.72;5028690;28;20422;-70
2023/03/01 00:48:49;;;;;;;20.90;14.17;;;;;;;0.35;63.04;96778.16;5009841;28;20404;-69
2023/03/01 00:51:18;;;;;;;19.57;11.80;;;;;;;0.54;62.97;96774.72;5009683;28;20438;-69
2023/03/01 00:53:45;;;;;;;18.10;12.13;;;;;;;0.70;62.29;96775.63;5009874;28;20177;-69
2023/03/01 00:56:13;;;;;;;19.20;14.23;;;;;;;0.51;63.52;96760.97;5009100;28;20407;-67
2023/03/01 00:58:39;;;;;;;20.67;13.13;;;;;;;0.46;64.16;96766.13;5009428;28;20491;-68
2023/03/01 01:01:16;;;;;;;22.23;14.70;;;;;;;0.29;63.75;96762.66;5009425;28;21260;-68
2023/03/01 01:03:46;;;;;;;20.43;14.70;;;;;;;0.33;63.98;96766.94;5009482;28;20415;-68
2023/03/01 01:06:35;;;;;;;20.93;15.43;;;;;;;0.39;63.67;96761.81;5009087;28;20415;-69
2023/03/01 01:09:02;;;;;;;19.20;13.10;;;;;;;0.34;64.07;96756.63;5009666;28;20407;-68
2023/03/01 01:11:29;;;;;;;21.67;15.50;;;;;;;0.09;64.82;96747.97;5009292;28;20514;-69
2023/03/01 01:13:56;;;;;;;23.20;15.90;;;;;;;0.13;64.58;96754.88;5009108;28;20517;-69
2023/03/01 01:16:24;;;;;;;23.07;14.50;;;;;;;0.30;64.30;96751.47;5008837;28;20518;-70
2023/03/01 01:18:50;;;;;;;23.37;14.13;;;;;;;0.13;64.56;96748.84;5009302;28;20994;-70
2023/03/01 01:21:18;;;;;;;23.00;13.60;;;;;;;0.28;64.38;96748.00;5007878;28;20427;-69
2023/03/01 01:23:44;;;;;;;24.07;15.50;;;;;;;0.43;64.09;96737.72;5008910;28;20411;-70
2023/03/01 01:26:13;;;;;;;23.50;15.33;;;;;;;0.34;63.62;96735.13;5008668;28;20403;-70
2023/03/01 01:28:40;;;;;;;21.57;14.00;;;;;;;0.11;64.43;96735.94;5009029;28;20442;-70
2023/03/01 01:31:06;;;;;;;19.40;13.90;;;;;;;0.13;64.42;96734.22;5020090;28;20460;-70
2023/03/01 01:33:32;;;;;;;22.73;14.17;;;;;;;-0.01;65.33;96730.75;5028677;28;20410;-70
2023/03/01 01:35:58;;;;;;;18.90;13.87;;;;;;;0.34;63.47;96724.81;5028291;28;20426;-70
2023/03/01 01:38:23;;;;;;;23.77;15.40;;;;;;;0.33;63.61;96725.66;5028483;28;20724;-70
2023/03/01 01:40:49;;;;;;;20.23;13.57;;;;;;;0.30;63.70;96728.22;5028458;28;20199;-70
2023/03/01 01:43:24;;;;;;;19.90;13.97;;;;;;;0.45;64.61;96719.63;5028422;28;20171;-71
2023/03/01 01:45:52;;;;;;;19.73;14.30;;;;;;;0.63;63.31;96719.66;5027977;28;20429;-69
2023/03/01 01:48:24;;;;;;;21.07;14.43;;;;;;;0.98;61.73;96722.22;5027754;28;20496;-68
2023/03/01 01:51:00;;;;;;;21.03;14.27;;;;;;;0.67;62.63;96723.09;5028360;28;20407;-70
2023/03/01 01:53:26;;;;;;;21.20;14.40;;;;;;;0.68;62.38;96707.59;5028331;28;20414;-70
2023/03/01 01:55:56;;;;;;;21.60;15.40;;;;;;;0.55;62.45;96705.88;5027900;28;20512;-71
2023/03/01 01:58:26;;;;;;;20.70;13.80;;;;;;;0.74;62.76;96712.78;5028151;28;20410;-70
2023/03/01 02:00:53;;;;;;;24.23;13.40;;;;;;;0.80;61.99;96707.63;5028440;28;20946;-70
2023/03/01 02:03:23;;;;;;;18.47;15.00;;;;;;;0.68;62.74;96711.91;5028428;28;20495;-69
2023/03/01 02:06:11;;;;;;;21.13;14.33;;;;;;;0.70;62.45;96711.03;5028053;28;20425;-70
2023/03/01 02:08:38;;;;;;;26.17;14.97;;;;;;;0.67;62.88;96705.88;5017605;28;20425;-70
2023/03/01 02:11:06;;;;;;;24.40;14.57;;;;;;;0.54;62.49;96697.25;5028412;28;20436;-70
2023/03/01 02:13:34;;;;;;;20.67;14.13;;;;;;;0.49;63.76;96698.13;5028327;28;20493;-70
2023/03/01 02:16:03;;;;;;;19.77;14.77;;;;;;;0.41;63.71;96693.81;5027669;28;20418;-69
2023/03/01 02:18:28;;;;;;;19.10;14.13;;;;;;;0.67;63.17;96702.44;5027863;28;20423;-69
2023/03/01 02:21:00;;;;;;;22.13;14.37;;;;;;;0.76;61.60;96697.28;5027803;28;20421;-69
2023/03/01 02:23:25;;;;;;;18.43;14.57;;;;;;;0.95;61.72;96700.72;5027710;28;20163;-69
2023/03/01 02:26:09;;;;;;;22.20;14.87;;;;;;;0.85;61.95;96697.25;5026052;28;21148;-69
2023/03/01 02:28:41;;;;;;;23.00;16.80;;;;;;;0.85;62.06;96689.50;5027707;28;20179;-69
2023/03/01 02:33:53;;;;;;;23.63;15.97;;;;;;;0.67;63.40;96687.81;5007814;28;21158;-69
2023/03/01 02:36:22;;;;;;;21.43;14.77;;;;;;;0.60;63.10;96689.53;5007027;28;20444;-69
2023/03/01 02:38:51;;;;;;;20.70;14.17;;;;;;;0.59;63.13;96692.09;5006897;28;20463;-69
2023/03/01 02:41:20;;;;;;;23.30;14.37;;;;;;;0.65;62.32;96680.91;5005826;28;20430;-71
2023/03/01 02:43:46;;;;;;;26.80;15.90;;;;;;;0.50;63.17;96682.66;5007176;28;20487;-71
2023/03/01 02:46:22;;;;;;;18.70;15.53;;;;;;;0.31;64.46;96678.34;5027094;28;20448;-69
2023/03/01 02:48:54;;;;;;;22.83;13.30;;;;;;;0.30;64.46;96677.47;5006625;28;20415;-70
2023/03/01 02:51:31;;;;;;;19.53;14.30;;;;;;;0.57;63.27;96679.22;5005798;28;20435;-70
2023/03/01 02:54:09;;;;;;;20.20;13.70;;;;;;;0.49;64.21;96673.16;5007309;28;20418;-71
2023/03/01 02:56:35;;;;;;;23.60;14.57;;;;;;;0.32;63.89;96669.72;5007116;28;20426;-69
2023/03/01 02:59:02;;;;;;;25.37;15.47;;;;;;;0.45;64.18;96668.88;5007154;28;20534;-70
2023/03/01 03:01:36;;;;;;;22.00;15.67;;;;;;;0.36;65.03;96674.91;5005538;28;20533;-70
2023/03/01 03:04:10;;;;;;;21.20;14.30;;;;;;;0.60;63.47;96666.28;5005557;28;20509;-70
2023/03/01 03:06:36;;;;;;;20.50;14.13;;;;;;;0.46;64.32;96668.00;5006923;28;20451;-70
2023/03/01 03:09:03;;;;;;;20.53;14.77;;;;;;;0.35;64.53;96660.25;5007080;28;20439;-70
2023/03/01 03:11:29;;;;;;;19.90;13.47;;;;;;;0.25;64.61;96668.00;5006844;28;20845;-70
2023/03/01 03:13:55;;;;;;;22.13;14.53;;;;;;;0.40;63.81;96661.13;5006849;28;20809;-70
2023/03/01 03:16:21;;;;;;;22.37;14.47;;;;;;;0.36;64.64;96664.56;5006586;28;20439;-70
2023/03/01 03:18:47;;;;;;;17.37;13.67;;;;;;;0.53;63.25;96672.31;5006905;28;20511;-70
2023/03/01 03:21:13;;;;;;;20.60;14.70;;;;;;;0.52;64.51;96660.28;5007023;28;20446;-69
2023/03/01 03:23:39;;;;;;;20.40;14.73;;;;;;;0.53;63.54;96656.81;5013092;28;20415;-70
2023/03/01 03:26:05;;;;;;;22.50;15.63;;;;;;;0.52;63.64;96649.06;5017691;28;20502;-69
2023/03/01 03:28:33;;;;;;;17.30;14.10;;;;;;;0.58;63.91;96652.50;5016461;28;20176;-69
2023/03/01 03:31:03;;;;;;;20.40;13.87;;;;;;;0.58;64.15;96660.25;5027117;28;20426;-71
2023/03/01 03:33:32;;;;;;;21.93;14.40;;;;;;;0.39;64.11;96653.38;5028864;28;20410;-69
2023/03/01 03:35:58;;;;;;;24.83;15.73;;;;;;;0.50;63.63;96651.66;5027922;28;20421;-69
2023/03/01 03:38:24;;;;;;;20.60;14.77;;;;;;;0.40;63.89;96655.09;5027397;28;20892;-69
2023/03/01 03:40:52;;;;;;;21.10;14.67;;;;;;;0.30;64.73;96649.06;5027074;28;20286;-69
2023/03/01 03:43:22;;;;;;;26.47;15.07;;;;;;;0.37;65.23;96653.38;5027201;28;20403;-70
2023/03/01 03:45:50;;;;;;;22.57;14.97;;;;;;;0.31;64.78;96652.53;5029321;28;20536;-68
2023/03/01 03:48:16;;;;;;;23.73;15.70;;;;;;;0.40;64.11;96649.94;5030680;28;20425;-71
2023/03/01 03:50:48;;;;;;;21.03;15.67;;;;;;;0.40;64.10;96655.97;5030894;28;20489;-69
2023/03/01 03:53:14;;;;;;;19.20;13.80;;;;;;;0.15;65.03;96649.94;5031156;28;20406;-70
2023/03/01 03:55:40;;;;;;;24.13;14.93;;;;;;;0.07;65.02;96651.66;5030358;28;20406;-70
2023/03/01 03:58:08;;;;;;;22.23;15.90;;;;;;;0.21;64.98;96643.91;5030490;28;20548;-69
2023/03/01 04:00:38;;;;;;;24.20;15.93;;;;;;;0.07;64.80;96650.78;5030332;28;20203;-70
2023/03/01 04:03:04;;;;;;;21.70;16.40;;;;;;;0.22;65.04;96642.19;5030785;28;20512;-71
2023/03/01 04:05:30;;;;;;;22.23;14.37;;;;;;;0.36;64.40;96633.59;5030347;28;20506;-70
2023/03/01 04:08:03;;;;;;;22.30;15.50;;;;;;;0.20;64.18;96640.47;5030523;28;20871;-70
2023/03/01 04:10:36;;;;;;;21.47;15.23;;;;;;;0.12;64.64;96651.63;5030554;28;20915;-69
2023/03/01 04:13:01;;;;;;;23.20;14.80;;;;;;;0.23;64.23;96636.16;5030588;28;20430;-69
2023/03/01 04:15:27;;;;;;;22.17;16.40;;;;;;;-0.06;65.20;96643.03;5030301;28;20919;-68
2023/03/01 04:17:54;;;;;;;22.37;15.53;;;;;;;-0.03;65.43;96637.00;5030380;28;20175;-70
2023/03/01 04:20:26;;;;;;;24.33;15.13;;;;;;;0.16;64.69;96633.56;5031719;28;20462;-70
2023/03/01 04:22:57;;;;;;;21.23;14.10;;;;;;;0.16;64.93;96641.31;5040427;28;20831;-70
2023/03/01 04:25:24;;;;;;;21.03;13.57;;;;;;;0.13;65.33;96636.16;5042232;28;20406;-71
2023/03/01 04:27:50;;;;;;;21.53;16.20;;;;;;;0.12;65.19;96633.56;5042623;28;20410;-70
2023/03/01 04:30:16;;;;;;;27.97;16.17;;;;;;;0.05;65.03;96635.31;5035740;28;20410;-70
2023/03/01 04:32:42;;;;;;;22.30;15.90;;;;;;;-0.02;65.25;96631.00;5021119;28;20420;-68
2023/03/01 04:35:08;;;;;;;20.27;13.90;;;;;;;-0.08;65.80;96638.72;5019740;28;20473;-69
2023/03/01 04:37:34;;;;;;;24.77;14.00;;;;;;;0.05;65.69;96637.88;5014995;28;20184;-69
2023/03/01 04:40:07;;;;;;;22.30;15.00;;;;;;;-0.04;66.01;96630.13;5014588;28;20458;-68
2023/03/01 04:42:33;;;;;;;28.57;16.83;;;;;;;0.20;65.16;96617.25;5013672;28;21265;-69
2023/03/01 04:44:58;;;;;;;26.73;15.30;;;;;;;0.17;65.06;96621.56;5022839;28;20405;-68
2023/03/01 04:47:25;;;;;;;19.20;14.80;;;;;;;0.22;64.77;96616.41;5032533;28;20179;-69
2023/03/01 04:49:50;;;;;;;20.13;15.63;;;;;;;0.39;63.80;96620.69;5032243;28;20234;-69
2023/03/01 04:52:16;;;;;;;22.03;16.10;;;;;;;0.25;64.91;96611.22;5031094;28;20434;-70
2023/03/01 04:54:42;;;;;;;24.20;15.60;;;;;;;0.26;64.43;96620.69;5030396;28;20167;-69
2023/03/01 04:57:08;;;;;;;28.07;16.63;;;;;;;0.28;65.03;96613.78;5029823;28;20232;-69
2023/03/01 04:59:35;;;;;;;22.83;15.50;;;;;;;0.19;65.08;96619.84;5030028;28;21022;-70
2023/03/01 05:02:01;;;;;;;28.43;16.10;;;;;;;-0.11;65.89;96615.50;5029615;28;20300;-70
2023/03/01 05:04:27;;;;;;;25.60;17.30;;;;;;;-0.13;65.57;96617.22;5029471;28;20496;-69
2023/03/01 05:06:53;;;;;;;22.07;14.93;;;;;;;-0.06;65.37;96617.22;5029284;28;20179;-68
2023/03/01 05:09:19;;;;;;;21.80;14.70;;;;;;;0.08;64.94;96616.38;5029404;28;20171;-69
2023/03/01 05:11:44;;;;;;;20.70;13.97;;;;;;;0.12;65.51;96612.94;5029210;28;20441;-69
2023/03/01 05:14:11;;;;;;;23.13;15.90;;;;;;;0.06;65.33;96613.78;5029300;28;20199;-68
2023/03/01 05:16:37;;;;;;;22.60;15.13;;;;;;;0.20;65.01;96608.66;5029028;28;20791;-68
2023/03/01 05:19:14;;;;;;;21.70;16.57;;;;;;;0.09;64.94;96613.78;5030742;28;20460;-69
2023/03/01 05:22:01;;;;;;;18.97;12.27;;;;;;;-0.03;65.51;96604.31;5030485;28;20230;-69
2023/03/01 05:24:26;;;;;;;22.23;14.90;;;;;;;-0.04;65.92;96605.19;5031085;28;20525;-68
2023/03/01 05:26:52;;;;;;;23.73;14.33;;;;;;;0.07;65.73;96607.78;5030902;28;20501;-70
2023/03/01 05:29:24;;;;;;;25.43;16.10;;;;;;;0.17;65.34;96601.75;5030564;28;20210;-70
2023/03/01 05:31:54;;;;;;;23.30;15.57;;;;;;;0.34;64.68;96608.66;5030572;28;20211;-70
2023/03/01 05:34:27;;;;;;;23.90;15.87;;;;;;;0.20;64.94;96611.22;5030962;28;20888;-68
2023/03/01 05:36:53;;;;;;;21.97;15.50;;;;;;;0.47;64.06;96605.16;5027727;28;20433;-68
2023/03/01 05:39:23;;;;;;;20.50;15.53;;;;;;;0.60;62.87;96608.63;5029715;28;20457;-69
2023/03/01 05:41:53;;;;;;;22.30;14.83;;;;;;;0.35;63.93;96600.88;5029923;28;20438;-68
2023/03/01 05:44:18;;;;;;;24.70;16.10;;;;;;;0.28;63.63;96609.50;5027569;28;20421;-70
2023/03/01 05:46:44;;;;;;;24.87;15.43;;;;;;;0.24;63.98;96602.63;5026204;28;20451;-69
2023/03/01 05:49:13;;;;;;;25.90;16.80;;;;;;;0.07;64.83;96596.59;5029226;28;20188;-69
2023/03/01 05:51:40;;;;;;;26.40;15.30;;;;;;;0.01;64.72;96599.19;5029787;28;20433;-69
2023/03/01 05:54:09;;;;;;;20.30;15.33;;;;;;;0.30;64.46;96609.50;5030800;28;20418;-69
2023/03/01 05:56:36;;;;;;;22.03;15.37;;;;;;;-0.13;65.36;96604.31;5028333;28;20489;-71
2023/03/01 05:59:04;;;;;;;25.03;16.53;;;;;;;-0.08;64.97;96605.19;5030401;28;20446;-70
2023/03/01 06:01:34;;;;;;;23.13;15.90;;;;;;;0.19;63.94;96602.63;5024518;28;20446;-71
2023/03/01 06:04:07;;;;;;;24.63;17.40;;;;;;;0.02;64.87;96606.91;5033064;28;20426;-70
2023/03/01 06:06:39;;;;;;;23.27;16.40;;;;;;;-0.20;65.87;96610.34;5031821;28;21038;-71
2023/03/01 06:09:08;;;;;;;23.17;14.10;;;;;;;0.18;63.94;96616.38;5036155;28;20911;-69
2023/03/01 06:11:35;;;;;;;26.10;18.27;;;;;;;0.05;64.17;96617.25;5033239;28;20878;-69
2023/03/01 06:14:01;;;;;;;24.20;16.97;;;;;;;0.09;64.53;96616.38;5033460;28;20889;-70
2023/03/01 06:16:27;;;;;;;23.13;15.67;;;;;;;0.22;64.23;96618.97;5029905;28;20466;-70
2023/03/01 06:18:53;;;;;;;38.60;19.13;;;;;;;0.31;64.05;96618.97;5042327;28;21213;-71
2023/03/01 06:21:18;;;;;;;28.17;16.07;;;;;;;0.17;64.00;96618.97;5035490;28;20199;-70
2023/03/01 06:23:47;;;;;;;22.43;15.53;;;;;;;0.19;63.98;96625.84;5030015;28;20579;-70
2023/03/01 06:26:12;;;;;;;25.97;17.30;;;;;;;0.26;63.62;96624.13;5051943;28;20210;-69
2023/03/01 06:28:38;;;;;;;32.70;16.00;;;;;;;0.40;63.24;96616.38;5041671;28;20460;-71
2023/03/01 06:31:04;;;;;;;25.17;15.17;;;;;;;0.50;62.94;96619.81;5036542;28;20314;-70
2023/03/01 06:33:29;;;;;;;27.60;18.20;;;;;;;0.70;62.09;96607.72;5043407;28;20166;-69
2023/03/01 06:35:56;;;;;;;24.27;16.57;;;;;;;0.81;61.27;96612.88;5025131;28;20287;-70
2023/03/01 06:38:22;;;;;;;21.93;13.87;;;;;;;0.70;61.82;96609.44;5030486;28;20184;-70
2023/03/01 06:40:56;;;;;;;26.03;16.67;;;;;;;0.46;62.97;96613.78;5026544;28;20515;-69
2023/03/01 06:43:23;;;;;;;24.33;14.63;;;;;;;0.23;63.06;96616.38;5023536;28;20430;-70
2023/03/01 06:45:49;;;;;;;27.17;16.80;;;;;;;0.28;63.23;96616.38;5026474;28;20447;-69
2023/03/01 06:48:15;;;;;;;25.30;16.60;;;;;;;0.14;63.62;96614.69;5027615;28;20433;-68
2023/03/01 06:50:40;;;;;;;20.90;15.27;;;;;;;0.05;63.51;96614.66;5024293;28;20904;-71
2023/03/01 06:53:06;;;;;;;24.30;14.77;;;;;;;-0.03;63.74;96619.78;5025205;28;20445;-69
2023/03/01 06:55:31;;;;;;;25.43;16.17;;;;;;;-0.03;64.06;96619.78;5022513;28;21045;-69
2023/03/01 06:57:59;;;;;;;29.53;16.90;;;;;;;-0.12;64.78;96624.97;5023429;28;20179;-69
2023/03/01 07:00:26;;;;;;;26.50;17.20;;;;;;;-0.24;64.77;96623.22;5023620;28;20388;-69
2023/03/01 07:02:52;;;;;;;20.93;15.33;;;;;;;-0.20;64.52;96621.50;5029731;28;21078;-69
2023/03/01 07:05:17;;;;;;;25.63;17.10;;;;;;;-0.18;65.09;96612.06;5024928;28;20434;-69
2023/03/01 07:07:43;;;;;;;21.50;14.70;;;;;;;0.35;62.45;96618.94;5022332;28;20183;-68
2023/03/01 07:10:11;;;;;;;22.63;14.80;;;;;;;1.74;58.14;96615.94;5026949;28;20168;-69
2023/03/01 07:12:37;;;;;;;22.87;16.10;;;;;;;2.60;55.47;96602.34;5026725;28;20224;-69
2023/03/01 07:15:04;;;;;;;23.47;14.67;;;;;;;2.20;55.44;96606.16;5034692;28;21206;-69
2023/03/01 07:17:30;;;;;;;28.03;14.43;;;;;;;2.69;55.18;96605.72;5029913;28;20179;-69
2023/03/01 07:19:56;;;;;;;24.00;15.53;;;;;;;3.02;53.36;96601.03;5027950;28;20747;-69
2023/03/01 07:22:21;;;;;;;21.47;15.53;;;;;;;3.60;52.06;96595.16;5024414;28;20204;-69
2023/03/01 07:24:47;;;;;;;22.80;16.00;;;;;;;3.61;51.51;96583.03;5023157;28;20430;-69
2023/03/01 07:27:12;;;;;;;23.13;14.93;;;;;;;3.74;51.27;96586.34;5028941;28;20183;-69
2023/03/01 07:29:38;;;;;;;24.43;16.27;;;;;;;3.98;50.17;96588.56;5035557;28;20195;-70
2023/03/01 07:32:05;;;;;;;21.30;14.80;;;;;;;4.26;49.40;96585.56;5019575;28;20672;-70
2023/03/01 07:34:31;;;;;;;21.57;15.47;;;;;;;4.18;48.31;96579.59;5027068;28;20190;-70
2023/03/01 07:36:57;;;;;;;21.17;14.43;;;;;;;3.23;51.53;96591.31;5024141;28;21146;-69
2023/03/01 07:39:23;;;;;;;25.03;15.93;;;;;;;3.84;50.20;96582.72;5023782;28;20199;-69
2023/03/01 07:41:49;;;;;;;23.00;13.73;;;;;;;5.02;47.51;96579.88;5039929;28;20450;-70
2023/03/01 07:44:16;;;;;;;19.07;12.83;;;;;;;4.41;47.36;96582.69;5025138;28;20553;-70
2023/03/01 07:46:41;;;;;;;19.83;14.87;;;;;;;3.98;49.45;96578.19;5021404;28;20426;-69
2023/03/01 07:49:07;;;;;;;21.10;15.60;;;;;;;3.12;51.95;96589.72;5027206;28;20802;-71
2023/03/01 07:51:32;;;;;;;20.43;15.67;;;;;;;2.58;53.27;96589.44;5024219;28;20207;-69
2023/03/01 07:53:58;;;;;;;23.20;15.63;;;;;;;1.52;56.64;96594.53;5024297;28;20270;-71
2023/03/01 07:56:23;;;;;;;22.10;14.00;;;;;;;1.31;57.96;96587.72;5030547;28;20213;-70
2023/03/01 07:58:49;;;;;;;22.60;15.27;;;;;;;0.86;59.77;96599.97;5024774;28;20183;-71
2023/03/01 08:01:18;;;;;;;28.90;16.67;;;;;;;0.46;61.00;96600.03;5023393;28;20196;-70
2023/03/01 08:03:44;;;;;;;24.30;16.43;;;;;;;0.52;60.52;96587.97;5021366;28;20179;-71
2023/03/01 08:06:11;;;;;;;28.50;18.27;;;;;;;0.55;61.39;96589.69;5024963;28;20422;-71
2023/03/01 08:08:37;;;;;;;23.10;17.77;;;;;;;0.84;60.53;96581.88;5027038;28;20595;-71
2023/03/01 08:11:04;;;;;;;26.50;17.00;;;;;;;0.99;60.50;96580.94;5036247;28;20437;-71
2023/03/01 08:13:30;;;;;;;25.53;17.87;;;;;;;0.87;60.42;96578.41;5029252;28;20433;-70
2023/03/01 08:16:05;;;;;;;27.37;17.57;;;;;;;0.93;59.92;96584.44;5027377;28;20983;-71
2023/03/01 08:18:31;;;;;;;25.27;17.60;;;;;;;0.84;60.07;96581.88;5025367;28;20515;-70
2023/03/01 08:21:08;;;;;;;27.33;17.37;;;;;;;1.01;59.70;96582.66;5024142;28;20549;-71
2023/03/01 08:23:34;;;;;;;28.80;16.57;;;;;;;0.72;59.62;96587.06;5048878;28;21031;-70
2023/03/01 08:26:14;;;;;;;29.20;17.47;;;;;;;0.81;59.63;96584.47;5034614;28;20848;-70
2023/03/01 08:28:40;;;;;;;21.33;14.73;;;;;;;0.82;59.74;96578.41;5025017;28;20432;-70
2023/03/01 08:31:35;;;;;;;29.53;17.17;;;;;;;0.31;60.50;96573.38;5025584;28;20449;-70
2023/03/01 08:34:02;;;;;;;29.23;17.93;;;;;;;0.41;61.65;96579.38;5025463;28;20426;-70
2023/03/01 08:36:31;;;;;;;24.60;16.63;;;;;;;0.51;60.96;96575.91;5028006;28;20436;-70
2023/03/01 08:38:57;;;;;;;28.37;17.90;;;;;;;0.55;60.78;96576.78;5028572;28;20436;-71
2023/03/01 08:41:23;;;;;;;23.23;15.03;;;;;;;0.56;60.24;96569.00;5027608;28;20862;-70
2023/03/01 08:43:49;;;;;;;27.43;17.33;;;;;;;0.75;60.63;96568.97;5028380;28;20203;-71
2023/03/01 08:46:15;;;;;;;23.13;16.30;;;;;;;0.61;59.94;96574.16;5026752;28;20481;-69
2023/03/01 08:48:42;;;;;;;23.80;15.53;;;;;;;0.61;60.79;96571.59;5032168;28;20439;-70
2023/03/01 08:51:16;;;;;;;24.40;16.47;;;;;;;0.72;60.18;96575.00;5040515;28;20195;-69
2023/03/01 08:53:42;;;;;;;24.80;17.00;;;;;;;0.83;59.35;96573.25;5032274;28;20433;-70
2023/03/01 08:56:09;;;;;;;26.80;15.53;;;;;;;0.53;60.24;96569.03;5030166;28;20434;-69
2023/03/01 08:58:35;;;;;;;22.37;15.27;;;;;;;0.41;60.81;96559.56;5032029;28;20490;-70
2023/03/01 09:01:00;;;;;;;26.97;16.70;;;;;;;0.36;60.86;96557.88;5028528;28;20462;-71
2023/03/01 09:03:27;;;;;;;23.87;16.30;;;;;;;0.46;61.40;96569.06;5026071;28;20183;-69
2023/03/01 09:05:53;;;;;;;26.67;16.40;;;;;;;0.74;60.40;96562.09;5034345;28;20186;-69
2023/03/01 09:08:19;;;;;;;28.33;16.33;;;;;;;0.97;59.79;96555.13;5037134;28;20568;-71
2023/03/01 09:10:45;;;;;;;22.83;15.90;;;;;;;1.02;59.97;96552.53;5031215;28;20524;-70
2023/03/01 09:13:11;;;;;;;33.30;17.10;;;;;;;0.81;59.70;96563.81;5026612;28;20436;-71
2023/03/01 09:15:37;;;;;;;24.27;16.33;;;;;;;0.68;59.96;96567.28;5027702;28;20222;-70
2023/03/01 09:18:03;;;;;;;28.53;18.10;;;;;;;0.72;59.97;96558.66;5032986;28;20316;-70
2023/03/01 09:20:30;;;;;;;28.13;16.50;;;;;;;1.02;59.58;96555.97;5038165;28;20504;-71
2023/03/01 09:22:56;;;;;;;25.53;16.13;;;;;;;0.98;59.17;96556.84;5031761;28;20214;-71
2023/03/01 09:25:21;;;;;;;25.90;16.60;;;;;;;1.05;60.58;96563.69;5031087;28;20434;-71
2023/03/01 09:27:47;;;;;;;27.17;18.00;;;;;;;1.12;59.45;96549.03;5036116;28;20694;-71
2023/03/01 09:30:13;;;;;;;24.63;15.57;;;;;;;1.30;58.54;96547.22;5034344;28;20183;-71
2023/03/01 09:32:42;;;;;;;28.40;17.27;;;;;;;1.58;58.78;96540.16;5033041;28;20665;-70
2023/03/01 09:35:08;;;;;;;23.47;15.93;;;;;;;1.39;58.61;96540.25;5027965;28;20906;-71
2023/03/01 09:37:34;;;;;;;24.97;17.27;;;;;;;1.23;58.65;96543.81;5027656;28;20443;-69
2023/03/01 09:40:00;;;;;;;22.80;16.17;;;;;;;1.11;58.69;96554.19;5027293;28;20548;-71
2023/03/01 09:42:30;;;;;;;27.37;16.70;;;;;;;1.05;59.69;96524.94;5026580;28;20553;-70
2023/03/01 09:45:01;;;;;;;28.63;18.40;;;;;;;1.09;59.98;96532.66;5031011;28;20553;-73
2023/03/01 09:47:30;;;;;;;26.90;17.33;;;;;;;1.15;59.90;96528.34;5036952;28;20540;-72
2023/03/01 09:50:09;;;;;;;28.60;18.87;;;;;;;1.17;58.79;96530.91;5027815;28;20434;-67
2023/03/01 09:53:01;;;;;;;25.97;17.73;;;;;;;1.34;58.76;96529.09;5029711;28;20458;-71
2023/03/01 09:55:33;;;;;;;19.00;12.87;;;;;;;1.08;60.01;96541.31;5025379;28;20477;-72
2023/03/01 09:58:16;;;;;;;26.13;16.57;;;;;;;1.05;59.84;96547.34;5035317;28;20525;-74
2023/03/01 10:00:44;;;;;;;31.10;17.13;;;;;;;1.18;59.46;96537.78;5032956;28;20517;-70
2023/03/01 10:03:27;;;;;;;26.10;17.33;;;;;;;1.25;59.33;96540.38;5025568;28;20878;-71
2023/03/01 10:06:00;;;;;;;24.50;16.47;;;;;;;1.53;58.90;96535.00;5025203;28;20437;-69
2023/03/01 10:08:38;;;;;;;22.20;15.77;;;;;;;1.48;59.47;96541.94;5026988;28;20421;-70
2023/03/01 10:11:16;;;;;;;26.53;16.50;;;;;;;1.82;58.41;96524.47;5026546;28;20445;-70
2023/03/01 10:13:59;;;;;;;20.73;15.07;;;;;;;2.19;56.77;96520.72;5027154;28;20533;-71
2023/03/01 10:16:45;;;;;;;26.30;18.13;;;;;;;2.12;57.06;96512.13;5031438;28;20429;-69
2023/03/01 10:19:25;;;;;;;27.90;16.00;;;;;;;2.33;56.47;96509.34;5031468;28;21002;-71
2023/03/01 10:21:52;;;;;;;22.37;16.87;;;;;;;2.27;56.52;96514.59;5025182;28;20457;-71
2023/03/01 10:24:21;;;;;;;26.17;15.60;;;;;;;2.08;56.92;96515.66;5031642;28;20841;-70
2023/03/01 10:27:02;;;;;;;29.87;18.20;;;;;;;1.99;57.25;96518.31;5018567;28;20435;-69
2023/03/01 10:29:53;;;;;;;25.43;15.70;;;;;;;1.64;58.13;96511.69;5027503;28;20430;-69
2023/03/01 10:32:19;;;;;;;29.87;16.10;;;;;;;1.86;57.25;96513.22;5024262;28;20458;-71
2023/03/01 10:34:47;;;;;;;22.70;16.00;;;;;;;1.83;57.73;96505.50;5027885;28;20516;-70
2023/03/01 10:37:12;;;;;;;28.03;17.60;;;;;;;2.22;57.13;96499.97;5028834;28;20184;-71
2023/03/01 10:40:00;;;;;;;22.97;16.70;;;;;;;2.57;55.83;96499.59;5026914;28;20561;-69
2023/03/01 10:42:31;;;;;;;32.20;18.03;;;;;;;2.49;54.52;96509.22;5032430;28;20223;-71
2023/03/01 10:44:57;;;;;;;26.43;16.77;;;;;;;2.72;54.75;96496.00;5026861;28;20971;-70
2023/03/01 10:47:27;;;;;;;25.60;17.80;;;;;;;3.14;53.56;96494.63;5030481;28;20598;-70
2023/03/01 10:49:54;;;;;;;26.87;18.23;;;;;;;2.93;54.15;96495.75;5025149;28;20184;-70
2023/03/01 10:52:23;;;;;;;25.80;15.97;;;;;;;3.42;53.00;96483.00;5031147;28;20458;-71
2023/03/01 10:55:00;;;;;;;28.13;17.90;;;;;;;3.47;52.86;96483.78;5026851;28;20434;-71
2023/03/01 10:57:31;;;;;;;31.13;20.63;;;;;;;3.40;53.06;96475.22;5032702;28;20455;-71
2023/03/01 11:00:26;;;;;;;24.63;17.93;;;;;;;3.63;51.44;96477.47;5029610;28;20506;-70
2023/03/01 11:03:09;;;;;;;27.30;17.27;;;;;;;3.90;51.22;96475.31;5025503;28;20461;-70
2023/03/01 11:05:35;;;;;;;24.93;18.53;;;;;;;3.56;52.00;96468.06;5027285;28;20690;-70
2023/03/01 11:08:03;;;;;;;27.93;18.03;;;;;;;3.60;51.69;96455.03;5025382;28;20847;-68
2023/03/01 11:10:31;;;;;;;24.60;17.80;;;;;;;3.40;52.29;96454.47;5031640;28;20271;-70
2023/03/01 11:13:18;;;;;;;25.73;17.73;;;;;;;3.44;52.02;96443.19;5024845;28;20489;-70
2023/03/01 11:16:02;;;;;;;26.43;17.63;;;;;;;3.41;51.93;96447.56;5023980;28;20517;-72
2023/03/01 11:18:30;;;;;;;22.27;16.77;;;;;;;3.93;51.64;96436.34;5028889;28;20446;-70
2023/03/01 11:20:58;;;;;;;29.07;18.13;;;;;;;3.73;51.78;96441.84;5028526;28;20501;-70
2023/03/01 11:23:25;;;;;;;24.30;16.93;;;;;;;4.29;51.14;96416.63;5032343;28;20444;-70
2023/03/01 11:26:01;;;;;;;27.77;18.10;;;;;;;4.58;50.35;96410.00;5029925;28;20562;-70
2023/03/01 11:28:29;;;;;;;34.87;19.00;;;;;;;4.72;49.28;96423.59;5026742;28;20444;-74
2023/03/01 11:31:12;;;;;;;27.60;17.20;;;;;;;4.36;49.47;96420.81;5024912;28;20977;-70
2023/03/01 11:33:43;;;;;;;25.00;16.67;;;;;;;4.39;49.82;96413.00;5031691;28;20437;-70
2023/03/01 11:36:27;;;;;;;24.57;17.87;;;;;;;4.53;50.42;96404.06;5029359;28;20440;-71